Time;durP1;ratioP1;P1;durP2;ratioP2;P2;SDS_P1;SDS_P2;PMS_P1;PMS_P2;Temp;Humidity;BMP_temperature;BMP_pressure;BME280_temperature;BME280_humidity;BME280_pressure;Samples;Min_cycle;Max_cycle;Signal;HPM_P1;HPM_P2
2022/09/07 00:00:41;;;;;;;11.70;7.75;;;17.70;99.90;;;;;;5024109;28;20067;-71
2022/09/07 00:03:06;;;;;;;8.25;7.38;;;17.60;99.90;;;;;;5025494;28;20381;-72
2022/09/07 00:05:32;;;;;;;10.00;8.00;;;17.60;99.90;;;;;;4993037;28;20044;-73
2022/09/07 00:07:58;;;;;;;10.70;7.05;;;17.50;99.90;;;;;;5024349;28;20473;-72
2022/09/07 00:10:25;;;;;;;8.25;7.10;;;17.60;99.90;;;;;;5006377;28;20045;-72
2022/09/07 00:12:51;;;;;;;9.77;7.43;;;17.50;99.90;;;;;;5029171;28;20048;-70
2022/09/07 00:15:18;;;;;;;11.73;8.15;;;17.40;99.90;;;;;;5029116;28;20036;-71
2022/09/07 00:17:43;;;;;;;9.73;7.75;;;17.40;99.90;;;;;;5028378;28;20391;-71
2022/09/07 00:20:10;;;;;;;9.95;8.45;;;17.30;99.90;;;;;;5013271;28;20044;-70
2022/09/07 00:22:37;;;;;;;9.82;8.77;;;17.40;99.90;;;;;;5007685;28;20179;-73
2022/09/07 00:25:03;;;;;;;9.32;8.35;;;17.30;99.90;;;;;;5029315;28;20033;-73
2022/09/07 00:27:29;;;;;;;10.15;8.15;;;17.40;99.90;;;;;;5026729;28;20165;-71
2022/09/07 00:29:55;;;;;;;12.50;9.27;;;17.30;99.90;;;;;;5028134;28;20144;-72
2022/09/07 00:32:20;;;;;;;9.43;8.30;;;17.30;99.90;;;;;;5025395;28;20041;-72
2022/09/07 00:34:48;;;;;;;11.55;9.00;;;17.30;99.90;;;;;;5010541;28;20032;-74
2022/09/07 00:37:13;;;;;;;11.23;8.68;;;17.30;99.90;;;;;;5013067;28;20056;-71
2022/09/07 00:39:39;;;;;;;9.57;8.25;;;17.30;99.90;;;;;;5011874;28;20446;-73
2022/09/07 00:42:05;;;;;;;9.57;8.57;;;17.30;99.90;;;;;;5024347;28;20128;-73
2022/09/07 00:44:43;;;;;;;11.52;8.98;;;17.30;99.90;;;;;;5027595;28;20468;-73
2022/09/07 00:47:20;;;;;;;10.88;8.40;;;17.30;99.90;;;;;;5013104;28;20037;-71
2022/09/07 00:49:50;;;;;;;11.90;8.30;;;17.30;99.90;;;;;;5012063;28;20037;-70
2022/09/07 00:52:19;;;;;;;9.30;8.40;;;17.40;99.90;;;;;;5026332;28;20037;-74
2022/09/07 00:54:49;;;;;;;10.13;9.13;;;17.40;99.90;;;;;;5003370;28;20044;-73
2022/09/07 00:57:15;;;;;;;9.68;8.70;;;17.40;99.90;;;;;;5012647;28;20044;-72
2022/09/07 00:59:48;;;;;;;9.80;8.80;;;17.40;99.90;;;;;;5008918;28;22101;-71
2022/09/07 01:02:17;;;;;;;10.48;9.38;;;17.40;99.90;;;;;;5027605;28;20099;-74
2022/09/07 01:04:47;;;;;;;10.02;9.13;;;17.40;99.90;;;;;;5026880;28;20072;-74
2022/09/07 01:07:13;;;;;;;10.95;8.93;;;17.30;99.90;;;;;;5010009;28;20037;-73
2022/09/07 01:09:41;;;;;;;12.00;8.90;;;17.30;99.90;;;;;;5005506;28;20096;-73
2022/09/07 01:12:08;;;;;;;9.90;8.88;;;17.30;99.90;;;;;;5028632;28;20053;-73
2022/09/07 01:14:39;;;;;;;10.75;9.70;;;17.30;99.90;;;;;;5026325;28;20049;-73
2022/09/07 01:17:25;;;;;;;10.25;9.27;;;17.20;99.90;;;;;;5029045;28;20048;-73
2022/09/07 01:20:12;;;;;;;10.43;9.32;;;17.20;99.90;;;;;;5027136;28;20048;-73
2022/09/07 01:22:44;;;;;;;10.45;9.23;;;17.20;99.90;;;;;;5027050;28;20063;-72
2022/09/07 01:25:13;;;;;;;11.00;9.10;;;17.20;99.90;;;;;;5028670;28;20041;-71
2022/09/07 01:27:57;;;;;;;12.02;9.90;;;17.20;99.90;;;;;;5026201;28;20037;-71
2022/09/07 01:30:24;;;;;;;10.50;9.45;;;17.30;99.90;;;;;;5007397;28;20073;-72
2022/09/07 01:33:04;;;;;;;10.98;9.57;;;17.30;99.90;;;;;;5028218;28;20759;-73
2022/09/07 01:35:43;;;;;;;12.52;10.45;;;17.40;99.90;;;;;;5024117;28;20051;-72
2022/09/07 01:38:19;;;;;;;11.85;10.45;;;17.40;99.90;;;;;;5023234;28;20509;-74
2022/09/07 01:41:01;;;;;;;16.05;10.18;;;17.40;99.90;;;;;;5025468;28;20047;-73
2022/09/07 01:43:34;;;;;;;12.73;11.23;;;17.50;99.90;;;;;;5040521;28;20132;-75
2022/09/07 01:46:04;;;;;;;12.95;11.73;;;17.40;99.90;;;;;;5022002;28;20040;-74
2022/09/07 01:48:32;;;;;;;14.00;12.35;;;17.40;99.90;;;;;;5028280;28;20037;-75
2022/09/07 01:51:03;;;;;;;16.92;12.52;;;17.30;99.90;;;;;;5010457;28;20041;-75
2022/09/07 01:53:42;;;;;;;20.27;12.02;;;17.30;99.90;;;;;;5011769;28;20040;-76
2022/09/07 01:56:13;;;;;;;13.63;10.60;;;17.40;99.90;;;;;;5025118;28;20412;-76
2022/09/07 01:59:02;;;;;;;14.43;11.57;;;17.40;99.90;;;;;;5022411;28;20033;-77
2022/09/07 02:01:59;;;;;;;15.98;12.25;;;17.40;99.90;;;;;;5011878;28;20049;-75
2022/09/07 02:04:33;;;;;;;13.88;12.25;;;17.40;99.90;;;;;;5024261;28;20164;-76
2022/09/07 02:07:06;;;;;;;14.23;12.73;;;17.40;99.90;;;;;;5027903;28;20043;-77
2022/09/07 02:09:48;;;;;;;15.85;12.60;;;17.40;99.90;;;;;;5010233;28;20039;-79
2022/09/07 02:12:22;;;;;;;21.88;14.05;;;17.30;99.90;;;;;;5028176;28;20394;-78
2022/09/07 02:14:55;;;;;;;17.48;13.50;;;17.40;99.90;;;;;;5025748;28;20064;-76
2022/09/07 02:17:31;;;;;;;14.23;12.63;;;17.40;99.90;;;;;;5007372;28;20067;-76
2022/09/07 02:20:07;;;;;;;15.55;12.50;;;17.30;99.90;;;;;;5009864;28;20041;-75
2022/09/07 02:22:37;;;;;;;13.90;11.70;;;17.50;99.90;;;;;;5006036;28;20043;-76
2022/09/07 02:25:06;;;;;;;13.02;11.68;;;17.40;99.90;;;;;;5007018;28;20112;-78
2022/09/07 02:27:44;;;;;;;14.35;11.18;;;17.40;99.90;;;;;;5025714;28;20382;-77
2022/09/07 02:30:10;;;;;;;12.30;10.98;;;17.40;99.90;;;;;;5012612;28;20132;-81
2022/09/07 02:32:39;;;;;;;12.95;9.80;;;17.60;99.90;;;;;;5007182;28;20049;-84
2022/09/07 02:35:14;;;;;;;12.68;11.07;;;17.50;99.90;;;;;;5001740;28;20457;-86
2022/09/07 02:38:40;;;;;;;13.85;10.25;;;17.40;99.90;;;;;;5012812;28;20060;-85
2022/09/07 02:44:59;;;;;;;14.77;10.38;;;16.50;99.90;;;;;;5047479;28;20124;-86
2022/09/07 02:51:47;;;;;;;11.30;9.07;;;17.60;99.90;;;;;;5028558;28;20040;-88
2022/09/07 02:58:50;;;;;;;11.48;8.90;;;17.70;99.90;;;;;;4997073;28;20521;-84
2022/09/07 03:01:55;;;;;;;9.20;7.97;;;16.80;99.90;;;;;;4974056;28;20105;-84
2022/09/07 03:04:50;;;;;;;8.75;7.57;;;17.60;99.90;;;;;;4976941;28;20081;-84
2022/09/07 03:07:52;;;;;;;9.32;7.20;;;17.70;99.90;;;;;;4967282;28;20069;-84
2022/09/07 03:10:40;;;;;;;8.80;7.43;;;17.60;99.90;;;;;;4965816;28;20681;-84
2022/09/07 03:16:55;;;;;;;11.98;9.55;;;17.70;99.90;;;;;;4945611;28;20045;-88
2022/09/07 03:19:29;;;;;;;12.68;10.82;;;17.70;99.90;;;;;;5010539;28;20059;-86
2022/09/07 03:21:59;;;;;;;9.25;8.32;;;18.70;99.90;;;;;;5030548;28;20112;-85
2022/09/07 03:24:27;;;;;;;8.80;7.90;;;17.70;99.90;;;;;;5013430;28;20436;-86
2022/09/07 03:26:53;;;;;;;7.95;7.15;;;17.70;99.90;;;;;;5017772;28;20037;-84
2022/09/07 03:29:19;;;;;;;9.32;8.35;;;17.70;99.90;;;;;;5018071;28;20049;-85
2022/09/07 03:31:45;;;;;;;8.40;7.55;;;17.70;99.90;;;;;;4988569;28;20032;-86
2022/09/07 03:34:12;;;;;;;9.32;8.43;;;17.80;99.90;;;;;;4995810;28;20053;-85
2022/09/07 03:36:38;;;;;;;9.20;8.10;;;17.70;99.90;;;;;;4999255;28;20045;-86
2022/09/07 03:39:19;;;;;;;9.85;8.20;;;17.80;99.90;;;;;;5015763;28;20136;-84
2022/09/07 03:41:45;;;;;;;9.32;8.38;;;17.80;99.90;;;;;;5003867;28;20045;-86
2022/09/07 03:44:11;;;;;;;9.82;8.27;;;17.60;99.90;;;;;;5021977;28;20052;-82
2022/09/07 03:46:37;;;;;;;10.13;8.57;;;17.60;99.90;;;;;;4996828;28;20104;-85
2022/09/07 03:49:02;;;;;;;9.27;8.27;;;17.60;99.90;;;;;;5003755;28;20034;-84
2022/09/07 03:51:34;;;;;;;9.35;8.35;;;17.70;99.90;;;;;;5016003;28;20044;-86
2022/09/07 03:54:00;;;;;;;11.00;8.63;;;17.70;99.90;;;;;;5012536;28;20135;-86
2022/09/07 03:56:27;;;;;;;9.95;8.43;;;17.60;99.90;;;;;;5015501;28;20123;-86
2022/09/07 03:58:54;;;;;;;10.48;9.48;;;17.60;99.90;;;;;;4996623;28;20486;-85
2022/09/07 04:01:23;;;;;;;10.40;9.30;;;17.80;99.90;;;;;;5015908;28;20363;-84
2022/09/07 04:03:52;;;;;;;11.00;9.82;;;17.60;99.90;;;;;;5012780;28;20131;-85
2022/09/07 04:06:19;;;;;;;14.63;10.52;;;17.50;99.90;;;;;;5018834;28;20528;-84
2022/09/07 04:08:45;;;;;;;13.75;10.70;;;17.50;99.90;;;;;;4999889;28;20033;-83
2022/09/07 04:11:18;;;;;;;11.80;10.63;;;17.50;99.90;;;;;;5000507;28;20329;-82
2022/09/07 04:13:44;;;;;;;13.45;12.07;;;17.50;99.90;;;;;;5007910;28;20048;-83
2022/09/07 04:16:20;;;;;;;14.02;12.05;;;17.60;99.90;;;;;;5016818;28;20119;-84
2022/09/07 04:18:49;;;;;;;14.85;12.93;;;17.50;99.90;;;;;;5017137;28;20080;-82
2022/09/07 04:21:16;;;;;;;13.57;12.20;;;17.50;99.90;;;;;;5031234;28;20772;-84
2022/09/07 04:23:46;;;;;;;13.30;11.90;;;17.40;99.90;;;;;;5013221;28;20058;-86
2022/09/07 04:26:22;;;;;;;17.50;12.55;;;17.50;99.90;;;;;;5015505;28;21088;-84
2022/09/07 04:28:55;;;;;;;13.27;11.98;;;17.50;99.90;;;;;;5014554;28;20052;-88
2022/09/07 04:31:29;;;;;;;15.27;13.60;;;17.30;99.90;;;;;;5012007;28;20393;-86
2022/09/07 04:34:14;;;;;;;13.68;11.93;;;17.40;99.90;;;;;;5023135;28;20040;-87
2022/09/07 04:36:43;;;;;;;15.85;13.93;;;17.30;99.90;;;;;;5008679;28;20045;-86
2022/09/07 04:39:12;;;;;;;15.32;13.25;;;17.30;99.90;;;;;;5023042;28;20041;-89
2022/09/07 04:41:50;;;;;;;17.38;14.20;;;17.30;99.90;;;;;;5022116;28;20030;-88
2022/09/07 04:44:16;;;;;;;17.08;14.23;;;17.40;99.90;;;;;;5018640;28;20041;-87
2022/09/07 04:46:42;;;;;;;20.10;15.23;;;17.40;99.90;;;;;;4995213;28;20497;-88
2022/09/07 04:49:09;;;;;;;18.25;15.52;;;17.60;99.90;;;;;;4987141;28;20550;-86
2022/09/07 04:51:43;;;;;;;17.45;15.60;;;17.60;99.90;;;;;;5012887;28;20095;-86
2022/09/07 04:54:09;;;;;;;17.35;15.50;;;17.30;99.90;;;;;;4996100;28;20110;-82
2022/09/07 04:56:37;;;;;;;18.13;15.38;;;17.70;99.90;;;;;;5013456;28;20243;-83
2022/09/07 04:59:03;;;;;;;18.48;16.58;;;17.70;99.90;;;;;;5002753;28;20090;-83
2022/09/07 05:01:29;;;;;;;18.02;16.30;;;17.60;99.90;;;;;;5017812;28;20491;-85
2022/09/07 05:03:59;;;;;;;20.23;17.27;;;17.70;99.90;;;;;;5030386;28;20505;-84
2022/09/07 05:06:24;;;;;;;18.75;16.17;;;17.70;99.90;;;;;;5012966;28;20044;-83
2022/09/07 05:08:52;;;;;;;20.27;17.58;;;17.70;99.90;;;;;;5002726;28;20033;-82
2022/09/07 05:11:20;;;;;;;18.92;17.02;;;17.80;99.90;;;;;;4997540;28;20093;-84
2022/09/07 05:13:46;;;;;;;19.85;17.75;;;17.80;99.90;;;;;;5016992;28;20558;-83
2022/09/07 05:16:17;;;;;;;21.95;19.02;;;17.70;99.90;;;;;;5021925;28;20124;-83
2022/09/07 05:18:43;;;;;;;23.13;20.33;;;17.70;99.90;;;;;;5017233;28;20112;-85
2022/09/07 05:21:15;;;;;;;22.92;19.27;;;18.00;99.90;;;;;;5004405;28;20041;-86
2022/09/07 05:23:42;;;;;;;20.98;18.83;;;17.90;99.90;;;;;;5037869;28;20101;-84
2022/09/07 05:26:09;;;;;;;19.10;17.05;;;17.90;99.90;;;;;;5015036;28;20508;-84
2022/09/07 05:28:35;;;;;;;21.80;19.30;;;17.80;99.90;;;;;;5035113;28;20048;-85
2022/09/07 05:31:05;;;;;;;21.73;19.40;;;17.90;99.90;;;;;;5012371;28;20034;-85
2022/09/07 05:33:31;;;;;;;21.15;18.88;;;18.00;99.90;;;;;;5010212;28;20073;-83
2022/09/07 05:35:58;;;;;;;21.13;18.83;;;17.90;99.90;;;;;;5000629;28;20080;-84
2022/09/07 05:38:24;;;;;;;22.00;19.80;;;18.00;99.90;;;;;;5015024;28;20068;-85
2022/09/07 05:40:51;;;;;;;25.73;19.40;;;18.10;99.90;;;;;;5016447;28;20036;-84
2022/09/07 05:43:17;;;;;;;25.27;20.60;;;18.10;99.90;;;;;;5011131;28;20044;-84
2022/09/07 05:45:42;;;;;;;22.45;20.05;;;18.00;99.90;;;;;;4999526;28;20037;-85
2022/09/07 05:48:08;;;;;;;23.05;20.60;;;18.00;99.90;;;;;;5029759;28;20037;-84
2022/09/07 05:50:35;;;;;;;22.30;18.65;;;18.00;99.90;;;;;;5021153;28;20363;-84
2022/09/07 05:53:04;;;;;;;22.67;20.33;;;17.80;99.90;;;;;;5013555;28;20083;-86
2022/09/07 05:55:30;;;;;;;22.60;20.05;;;18.00;99.90;;;;;;5016336;28;20533;-87
2022/09/07 05:58:02;;;;;;;25.98;21.90;;;18.00;99.90;;;;;;5002890;28;20110;-87
2022/09/07 06:00:28;;;;;;;22.95;20.38;;;17.80;99.90;;;;;;5013941;28;20553;-86
2022/09/07 06:02:54;;;;;;;24.23;21.70;;;17.80;99.90;;;;;;4993607;28;20128;-87
2022/09/07 06:05:19;;;;;;;23.25;20.73;;;17.90;99.90;;;;;;4999102;28;20063;-84
2022/09/07 06:07:47;;;;;;;25.98;22.27;;;17.80;99.90;;;;;;5030855;28;20445;-86
2022/09/07 06:10:12;;;;;;;24.27;21.15;;;17.80;99.90;;;;;;5032410;28;20559;-85
2022/09/07 06:12:38;;;;;;;22.00;19.70;;;18.00;99.90;;;;;;5001501;28;20042;-85
2022/09/07 06:15:04;;;;;;;21.77;19.55;;;17.80;99.90;;;;;;5003010;28;20033;-84
2022/09/07 06:17:32;;;;;;;22.98;20.67;;;17.90;99.90;;;;;;5004032;28;20139;-83
2022/09/07 06:19:57;;;;;;;23.42;21.00;;;17.80;99.90;;;;;;5014100;28;20040;-85
2022/09/07 06:22:23;;;;;;;24.13;21.70;;;18.00;99.90;;;;;;4984778;28;20370;-82
2022/09/07 06:24:49;;;;;;;24.38;21.88;;;18.10;99.90;;;;;;5015491;28;20052;-83
2022/09/07 06:27:15;;;;;;;24.45;21.85;;;18.20;99.90;;;;;;4984252;28;21692;-82
2022/09/07 06:29:41;;;;;;;24.40;21.58;;;18.10;99.90;;;;;;5011841;28;20049;-83
2022/09/07 06:32:06;;;;;;;25.35;22.63;;;18.30;99.90;;;;;;5010815;28;20129;-82
2022/09/07 06:34:32;;;;;;;22.85;20.48;;;18.20;99.90;;;;;;5000045;28;20041;-84
2022/09/07 06:36:58;;;;;;;25.50;22.75;;;18.20;99.90;;;;;;5013844;28;20044;-82
2022/09/07 06:39:23;;;;;;;25.40;22.55;;;18.30;99.90;;;;;;5034636;28;20094;-83
2022/09/07 06:41:49;;;;;;;23.17;20.83;;;18.30;99.90;;;;;;5020581;28;20048;-82
2022/09/07 06:44:15;;;;;;;24.02;21.48;;;18.30;99.90;;;;;;5017077;28;20041;-83
2022/09/07 06:46:42;;;;;;;24.25;21.85;;;18.30;99.90;;;;;;5010963;28;20033;-83
2022/09/07 06:49:07;;;;;;;23.33;20.83;;;18.30;99.90;;;;;;5015699;28;20037;-82
2022/09/07 06:51:33;;;;;;;24.95;22.35;;;18.40;99.90;;;;;;5000296;28;20504;-87
2022/09/07 06:54:16;;;;;;;24.70;21.33;;;18.30;99.90;;;;;;4980248;28;20068;-88
2022/09/07 06:56:45;;;;;;;23.27;20.77;;;18.50;99.90;;;;;;5009478;28;20123;-85
2022/09/07 06:59:13;;;;;;;24.00;21.23;;;18.40;99.90;;;;;;5010259;28;20084;-87
2022/09/07 07:01:39;;;;;;;24.70;22.08;;;18.50;99.90;;;;;;5008863;28;20072;-84
2022/09/07 07:04:05;;;;;;;25.38;20.88;;;18.60;99.90;;;;;;4991432;28;20044;-85
2022/09/07 07:06:37;;;;;;;27.38;23.38;;;18.50;99.90;;;;;;4996729;28;20041;-84
2022/09/07 07:09:05;;;;;;;23.88;21.40;;;18.40;99.90;;;;;;5016445;28;20198;-85
2022/09/07 07:11:31;;;;;;;27.80;24.95;;;18.50;99.90;;;;;;5016397;28;20115;-85
2022/09/07 07:13:57;;;;;;;26.63;23.85;;;18.60;99.90;;;;;;4995994;28;20033;-86
2022/09/07 07:16:28;;;;;;;29.50;26.38;;;18.50;99.90;;;;;;4996447;28;20485;-85
2022/09/07 07:18:55;;;;;;;38.90;33.60;;;18.70;99.90;;;;;;4996718;28;20044;-86
2022/09/07 07:21:20;;;;;;;38.13;31.23;;;18.70;99.90;;;;;;4998615;28;20071;-87
2022/09/07 07:23:51;;;;;;;36.42;30.10;;;18.60;99.90;;;;;;5029359;28;20128;-85
2022/09/07 07:26:19;;;;;;;34.95;30.48;;;18.60;99.90;;;;;;5021754;28;20160;-81
2022/09/07 07:28:48;;;;;;;31.42;28.17;;;18.70;99.90;;;;;;5011852;28;20064;-83
2022/09/07 07:31:16;;;;;;;29.50;26.40;;;18.60;99.90;;;;;;5011144;28;20041;-81
2022/09/07 07:36:37;;;;;;;27.30;24.48;;;18.50;99.90;;;;;;5024642;28;20037;-85
2022/09/07 07:39:04;;;;;;;27.65;24.60;;;18.50;99.90;;;;;;4992778;28;20080;-85
2022/09/07 07:41:33;;;;;;;27.23;24.30;;;18.50;99.90;;;;;;5003030;28;20080;-85
2022/09/07 07:43:59;;;;;;;25.80;23.10;;;19.10;99.90;;;;;;5020497;28;20060;-87
2022/09/07 07:46:26;;;;;;;25.83;22.52;;;18.60;99.90;;;;;;5009283;28;20540;-84
2022/09/07 07:48:53;;;;;;;29.35;24.02;;;18.50;99.90;;;;;;5011021;28;20030;-86
2022/09/07 07:51:27;;;;;;;24.67;22.08;;;18.50;99.90;;;;;;5012324;28;20128;-84
2022/09/07 07:53:58;;;;;;;27.88;24.13;;;18.70;99.90;;;;;;5017871;28;20055;-85
2022/09/07 07:56:27;;;;;;;24.75;22.27;;;18.50;99.90;;;;;;5005014;28;20076;-83
2022/09/07 07:58:53;;;;;;;24.75;22.27;;;18.70;99.90;;;;;;5016861;28;20041;-85
2022/09/07 08:01:18;;;;;;;26.60;22.45;;;18.60;99.90;;;;;;5001140;28;20436;-83
2022/09/07 08:03:48;;;;;;;22.95;20.52;;;18.70;99.90;;;;;;5001740;28;20096;-84
2022/09/07 08:06:16;;;;;;;23.67;21.40;;;18.60;99.90;;;;;;5018176;28;20056;-84
2022/09/07 08:08:43;;;;;;;23.13;20.83;;;18.60;99.90;;;;;;5016338;28;20075;-83
2022/09/07 08:11:17;;;;;;;24.27;21.80;;;18.70;99.90;;;;;;5014253;28;20099;-82
2022/09/07 08:13:45;;;;;;;25.00;22.40;;;18.50;99.90;;;;;;5010148;28;20060;-83
2022/09/07 08:16:11;;;;;;;24.05;21.55;;;17.40;99.90;;;;;;5026292;28;20072;-84
2022/09/07 08:18:38;;;;;;;25.90;23.13;;;18.70;99.90;;;;;;5012424;28;20041;-83
2022/09/07 08:21:07;;;;;;;23.75;21.35;;;18.70;99.90;;;;;;5014864;28;20101;-84
2022/09/07 08:23:33;;;;;;;25.60;23.02;;;18.70;99.90;;;;;;5033860;28;20048;-82
2022/09/07 08:25:59;;;;;;;25.63;23.05;;;18.80;99.90;;;;;;4998843;28;20092;-84
2022/09/07 08:28:27;;;;;;;25.60;23.00;;;18.80;99.90;;;;;;4996290;28;20757;-82
2022/09/07 08:30:53;;;;;;;24.55;22.02;;;18.90;99.90;;;;;;5029085;28;20037;-82
2022/09/07 08:33:19;;;;;;;25.38;22.70;;;19.00;99.90;;;;;;5017707;28;20037;-82
2022/09/07 08:35:58;;;;;;;25.63;23.08;;;19.00;99.90;;;;;;5020150;28;20119;-83
2022/09/07 08:38:28;;;;;;;25.98;23.38;;;18.80;99.90;;;;;;5015598;28;20041;-85
2022/09/07 08:40:54;;;;;;;25.25;22.73;;;19.90;99.90;;;;;;5013343;28;20086;-66
2022/09/07 08:43:47;;;;;;;25.17;22.67;;;18.90;99.90;;;;;;5031297;28;20725;-66
2022/09/07 08:46:39;;;;;;;27.13;24.35;;;19.10;99.90;;;;;;4999252;28;20370;-86
2022/09/07 08:49:14;;;;;;;25.63;22.88;;;19.10;99.90;;;;;;5012237;28;20359;-86
2022/09/07 08:51:57;;;;;;;24.67;22.10;;;19.30;99.90;;;;;;5019234;28;20501;-82
2022/09/07 08:54:23;;;;;;;26.35;23.30;;;19.40;99.90;;;;;;5017759;28;20657;-81
2022/09/07 08:56:52;;;;;;;24.95;22.38;;;19.30;99.90;;;;;;5001066;28;20110;-81
2022/09/07 08:59:25;;;;;;;25.55;22.90;;;19.30;99.90;;;;;;5033807;28;20044;-80
2022/09/07 09:01:51;;;;;;;27.42;22.67;;;19.40;99.90;;;;;;5014638;28;20501;-82
2022/09/07 09:04:26;;;;;;;24.65;22.00;;;19.50;99.90;;;;;;5014959;28;20088;-83
2022/09/07 09:06:58;;;;;;;24.75;22.25;;;19.50;99.90;;;;;;5016836;28;20124;-82
2022/09/07 09:09:50;;;;;;;25.38;22.65;;;19.60;99.90;;;;;;5015473;28;20032;-81
2022/09/07 09:12:54;;;;;;;26.25;23.08;;;19.60;99.90;;;;;;5009723;28;20098;-83
2022/09/07 09:16:02;;;;;;;24.67;22.05;;;19.50;99.90;;;;;;5014296;28;20049;-83
2022/09/07 09:18:46;;;;;;;25.27;22.60;;;19.60;99.90;;;;;;5015403;28;20056;-83
2022/09/07 09:21:17;;;;;;;25.05;22.48;;;20.00;99.90;;;;;;5015050;28;20449;-83
2022/09/07 09:23:47;;;;;;;25.88;23.27;;;19.70;99.90;;;;;;5009808;28;20037;-84
2022/09/07 09:26:29;;;;;;;23.02;20.55;;;19.70;99.90;;;;;;5015418;28;20539;-84
2022/09/07 09:28:56;;;;;;;25.02;22.52;;;19.80;99.90;;;;;;5002586;28;20486;-83
2022/09/07 09:31:29;;;;;;;24.83;21.85;;;20.10;99.90;;;;;;5021209;28;20042;-83
2022/09/07 09:34:11;;;;;;;24.77;21.58;;;20.10;99.90;;;;;;5028900;28;20305;-84
2022/09/07 09:36:53;;;;;;;24.17;20.95;;;20.20;99.90;;;;;;5021060;28;20045;-83
2022/09/07 09:39:34;;;;;;;21.73;19.52;;;20.40;99.90;;;;;;5015659;28;20040;-84
2022/09/07 09:42:14;;;;;;;20.58;18.48;;;20.40;99.90;;;;;;5036684;28;20044;-83
2022/09/07 09:44:40;;;;;;;21.30;18.85;;;20.60;99.90;;;;;;5027978;28;20037;-84
2022/09/07 09:47:34;;;;;;;20.98;18.20;;;20.80;99.90;;;;;;5032903;28;20052;-83
2022/09/07 09:50:19;;;;;;;20.98;18.88;;;20.50;99.90;;;;;;5029608;28;20041;-83
2022/09/07 09:52:45;;;;;;;20.33;18.23;;;20.30;99.90;;;;;;5015271;28;20045;-82
2022/09/07 09:55:28;;;;;;;19.75;17.77;;;20.40;99.90;;;;;;5013233;28;20556;-80
2022/09/07 09:58:00;;;;;;;18.48;16.67;;;20.60;99.90;;;;;;5016402;28;20112;-83
2022/09/07 10:00:29;;;;;;;20.05;16.70;;;20.70;99.90;;;;;;5015306;28;20444;-81
2022/09/07 10:03:01;;;;;;;18.55;16.08;;;20.80;99.90;;;;;;5015009;28;20396;-82
2022/09/07 10:05:34;;;;;;;19.92;17.92;;;20.90;99.90;;;;;;5036489;28;20036;-83
2022/09/07 10:08:01;;;;;;;19.00;16.92;;;21.00;99.90;;;;;;5026120;28;20029;-81
2022/09/07 10:10:28;;;;;;;15.98;14.25;;;21.10;99.90;;;;;;5013469;28;20033;-83
2022/09/07 10:12:55;;;;;;;15.93;14.48;;;21.20;99.90;;;;;;5009110;28;20485;-83
2022/09/07 10:15:35;;;;;;;16.48;14.88;;;21.10;99.90;;;;;;4999481;28;20384;-82
2022/09/07 10:18:05;;;;;;;16.52;14.75;;;21.10;99.90;;;;;;5023887;28;20034;-82
2022/09/07 10:20:35;;;;;;;15.93;14.18;;;21.00;99.90;;;;;;5027149;28;20037;-81
2022/09/07 10:23:02;;;;;;;15.18;13.77;;;21.20;99.90;;;;;;5015788;28;20248;-81
2022/09/07 10:25:29;;;;;;;17.63;13.93;;;21.20;99.90;;;;;;5014746;28;20068;-81
2022/09/07 10:28:16;;;;;;;14.30;12.85;;;21.30;99.90;;;;;;5014872;28;20587;-82
2022/09/07 10:31:04;;;;;;;14.13;12.27;;;21.00;99.90;;;;;;5028072;28;20044;-81
2022/09/07 10:33:56;;;;;;;13.70;12.27;;;21.00;99.90;;;;;;5007080;28;20079;-83
2022/09/07 10:36:37;;;;;;;12.98;11.52;;;20.80;99.90;;;;;;5024279;28;20037;-82
2022/09/07 10:39:07;;;;;;;11.55;10.45;;;20.60;99.90;;;;;;5026118;28;20073;-81
2022/09/07 10:41:58;;;;;;;10.32;9.32;;;20.90;99.90;;;;;;5024799;28;20120;-82
2022/09/07 10:44:38;;;;;;;10.57;9.60;;;21.00;99.90;;;;;;5011570;28;20046;-81
2022/09/07 10:47:35;;;;;;;10.07;9.13;;;21.00;99.90;;;;;;5007425;28;20551;-82
2022/09/07 10:50:26;;;;;;;10.23;9.10;;;21.20;99.90;;;;;;5008266;28;20091;-82
2022/09/07 10:53:26;;;;;;;12.23;9.23;;;21.60;99.90;;;;;;4987183;28;20354;-81
2022/09/07 10:56:22;;;;;;;10.70;8.65;;;21.90;99.90;;;;;;5029946;28;20735;-82
2022/09/07 10:59:18;;;;;;;10.10;7.75;;;21.90;99.90;;;;;;5011662;28;20036;-82
2022/09/07 11:02:10;;;;;;;7.55;6.53;;;22.30;99.90;;;;;;5013838;28;20389;-82
2022/09/07 11:04:45;;;;;;;7.55;6.68;;;22.10;99.90;;;;;;5010657;28;21481;-81
2022/09/07 11:07:47;;;;;;;6.20;5.55;;;22.20;99.90;;;;;;5027616;28;20397;-81
2022/09/07 11:10:26;;;;;;;6.85;6.22;;;21.80;99.90;;;;;;5026339;28;20064;-83
2022/09/07 11:12:56;;;;;;;7.63;5.95;;;22.00;99.90;;;;;;5010259;28;20528;-83
2022/09/07 11:15:30;;;;;;;6.85;6.10;;;22.00;99.90;;;;;;5017173;28;20676;-82
2022/09/07 11:18:10;;;;;;;7.97;6.22;;;22.00;99.90;;;;;;5023029;28;20041;-82
2022/09/07 11:21:11;;;;;;;6.82;6.22;;;21.80;99.90;;;;;;5010031;28;20083;-83
2022/09/07 11:24:10;;;;;;;6.57;5.97;;;21.70;99.90;;;;;;5028727;28;20164;-82
2022/09/07 11:26:42;;;;;;;7.35;6.57;;;21.90;99.90;;;;;;5028760;28;20076;-82
2022/09/07 11:29:13;;;;;;;6.50;5.75;;;22.30;99.90;;;;;;5014493;28;20061;-82
2022/09/07 11:31:44;;;;;;;5.45;4.95;;;22.20;99.90;;;;;;5009782;28;20124;-83
2022/09/07 11:34:20;;;;;;;6.40;5.55;;;22.20;99.90;;;;;;5012822;28;20037;-82
2022/09/07 11:37:11;;;;;;;8.55;6.15;;;22.10;99.90;;;;;;5024129;28;20042;-82
2022/09/07 11:40:02;;;;;;;6.32;5.72;;;22.10;99.90;;;;;;4976670;28;20095;-82
2022/09/07 11:42:48;;;;;;;5.70;5.13;;;22.00;99.90;;;;;;5012716;28;20045;-82
2022/09/07 11:45:24;;;;;;;6.97;5.82;;;22.00;99.90;;;;;;5016249;28;20046;-82
2022/09/07 11:48:08;;;;;;;5.70;5.10;;;21.90;99.90;;;;;;5015564;28;20025;-82
2022/09/07 11:50:41;;;;;;;5.70;5.20;;;21.90;99.90;;;;;;5036928;28;20040;-81
2022/09/07 11:53:21;;;;;;;5.85;4.70;;;22.20;99.90;;;;;;5030281;28;20055;-82
2022/09/07 11:55:54;;;;;;;4.40;4.00;;;22.50;99.90;;;;;;5012983;28;20600;-82
2022/09/07 11:58:56;;;;;;;4.43;3.85;;;22.60;99.90;;;;;;5016659;28;20052;-81
2022/09/07 12:01:48;;;;;;;4.20;3.80;;;22.80;99.90;;;;;;5016294;28;20072;-82
2022/09/07 12:04:28;;;;;;;4.57;3.70;;;22.90;99.90;;;;;;5049336;28;20056;-83
2022/09/07 12:07:12;;;;;;;4.95;3.58;;;23.10;99.90;;;;;;5011511;28;20091;-82
2022/09/07 12:09:54;;;;;;;5.22;4.50;;;23.10;99.90;;;;;;5026908;28;20079;-82
2022/09/07 12:12:39;;;;;;;4.93;3.80;;;23.20;99.90;;;;;;5020657;28;20044;-82
2022/09/07 12:15:54;;;;;;;4.05;3.65;;;23.10;99.90;;;;;;5030175;28;20041;-82
2022/09/07 12:18:31;;;;;;;3.80;3.47;;;22.70;99.90;;;;;;4937261;29;20054;-81
2022/09/07 12:20:57;;;;;;;8.35;3.63;;;22.60;99.90;;;;;;4937117;29;20031;-81
2022/09/07 12:23:30;;;;;;;4.55;3.90;;;22.80;99.90;;;;;;4970376;28;20056;-82
2022/09/07 12:26:34;;;;;;;3.85;3.45;;;22.80;99.90;;;;;;5016081;28;20189;-81
2022/09/07 12:29:00;;;;;;;7.90;3.97;;;22.90;99.90;;;;;;5031875;28;20107;-81
2022/09/07 12:31:44;;;;;;;4.95;4.03;;;23.00;99.90;;;;;;5017131;28;20452;-82
2022/09/07 12:34:28;;;;;;;5.55;4.20;;;22.90;99.90;;;;;;5016251;28;20048;-83
2022/09/07 12:36:55;;;;;;;4.47;4.03;;;22.80;99.90;;;;;;5032167;28;20041;-83
2022/09/07 12:39:29;;;;;;;5.82;5.15;;;22.70;99.90;;;;;;5021697;28;20094;-82
2022/09/07 12:42:04;;;;;;;3.45;3.13;;;22.60;99.90;;;;;;5035463;28;20391;-82
2022/09/07 12:44:31;;;;;;;2.92;2.63;;;22.60;99.90;;;;;;5013027;28;20437;-82
2022/09/07 12:46:59;;;;;;;2.88;2.45;;;22.50;99.90;;;;;;5009772;28;20389;-82
2022/09/07 12:49:49;;;;;;;2.30;2.10;;;22.60;99.90;;;;;;5019767;28;20041;-82
2022/09/07 12:52:29;;;;;;;2.88;2.22;;;23.10;99.90;;;;;;5032083;28;20045;-80
2022/09/07 12:55:31;;;;;;;1.75;1.63;;;23.20;99.90;;;;;;5013082;28;20203;-80
2022/09/07 12:58:19;;;;;;;2.17;1.88;;;23.10;99.90;;;;;;5008621;28;20036;-82
2022/09/07 13:01:20;;;;;;;5.45;2.55;;;22.90;99.90;;;;;;5015428;28;20044;-82
2022/09/07 13:04:17;;;;;;;5.13;1.70;;;22.80;99.90;;;;;;5016284;28;20048;-81
2022/09/07 13:07:05;;;;;;;2.85;2.20;;;22.80;99.90;;;;;;5013454;28;20041;-80
2022/09/07 13:09:40;;;;;;;3.03;2.15;;;22.60;99.90;;;;;;5030679;28;20029;-80
2022/09/07 13:12:38;;;;;;;2.22;2.00;;;22.50;99.90;;;;;;5014589;28;20045;-80
2022/09/07 13:15:05;;;;;;;3.67;1.60;;;22.30;99.90;;;;;;5013929;28;20504;-81
2022/09/07 13:17:37;;;;;;;2.78;1.88;;;22.50;99.90;;;;;;5013227;28;20073;-80
2022/09/07 13:20:09;;;;;;;2.08;1.60;;;22.70;99.90;;;;;;5012703;28;20042;-81
2022/09/07 13:22:35;;;;;;;2.72;2.00;;;22.90;99.90;;;;;;5013085;28;20053;-79
2022/09/07 13:25:22;;;;;;;2.20;2.00;;;23.30;99.90;;;;;;5015103;28;20047;-79